sensor_id;sensor_type;location;lat;lon;timestamp;pressure;altitude;pressure_sealevel;temperature;humidity
46448;BME280;32145;50.390;30.778;2022-09-09T00:00:26;100619.63;;;8.68;61.03
46448;BME280;32145;50.390;30.778;2022-09-09T00:03:16;100621.69;;;8.66;61.63
46448;BME280;32145;50.390;30.778;2022-09-09T00:06:07;100619.38;;;8.62;61.62
46448;BME280;32145;50.390;30.778;2022-09-09T00:09:01;100625.41;;;8.58;61.84
46448;BME280;32145;50.390;30.778;2022-09-09T00:11:48;100615.19;;;8.53;61.31
46448;BME280;32145;50.390;30.778;2022-09-09T00:14:39;100619.97;;;8.51;61.51
46448;BME280;32145;50.390;30.778;2022-09-09T00:17:34;100614.94;;;8.48;61.45
46448;BME280;32145;50.390;30.778;2022-09-09T00:20:26;100611.78;;;8.44;61.64
46448;BME280;32145;50.390;30.778;2022-09-09T00:23:19;100615.75;;;8.42;61.74
46448;BME280;32145;50.390;30.778;2022-09-09T00:26:09;100615.13;;;8.40;61.93
46448;BME280;32145;50.390;30.778;2022-09-09T00:29:02;100612.81;;;8.36;62.22
46448;BME280;32145;50.390;30.778;2022-09-09T00:31:47;100614.25;;;8.32;61.89
46448;BME280;32145;50.390;30.778;2022-09-09T00:34:32;100629.00;;;8.30;62.18
46448;BME280;32145;50.390;30.778;2022-09-09T00:37:19;100621.47;;;8.25;62.44
46448;BME280;32145;50.390;30.778;2022-09-09T00:40:15;100631.44;;;8.24;62.60
46448;BME280;32145;50.390;30.778;2022-09-09T00:43:23;100635.38;;;8.22;62.24
46448;BME280;32145;50.390;30.778;2022-09-09T00:49:37;100633.88;;;8.12;62.55
46448;BME280;32145;50.390;30.778;2022-09-09T00:52:32;100635.31;;;8.08;62.86
46448;BME280;32145;50.390;30.778;2022-09-09T00:55:26;100641.31;;;8.04;62.67
46448;BME280;32145;50.390;30.778;2022-09-09T00:58:14;100642.91;;;7.98;62.91
46448;BME280;32145;50.390;30.778;2022-09-09T01:01:04;100639.41;;;7.97;63.07
46448;BME280;32145;50.390;30.778;2022-09-09T01:03:49;100636.72;;;7.97;62.96
46448;BME280;32145;50.390;30.778;2022-09-09T01:06:37;100647.84;;;7.88;62.69
46448;BME280;32145;50.390;30.778;2022-09-09T01:09:26;100648.06;;;7.86;63.59
46448;BME280;32145;50.390;30.778;2022-09-09T01:12:16;100651.97;;;7.83;63.28
46448;BME280;32145;50.390;30.778;2022-09-09T01:15:08;100654.69;;;7.83;63.50
46448;BME280;32145;50.390;30.778;2022-09-09T01:17:56;100646.31;;;7.78;63.46
46448;BME280;32145;50.390;30.778;2022-09-09T01:20:47;100652.09;;;7.75;63.46
46448;BME280;32145;50.390;30.778;2022-09-09T01:23:41;100663.31;;;7.72;63.72
46448;BME280;32145;50.390;30.778;2022-09-09T01:26:34;100660.81;;;7.70;63.51
46448;BME280;32145;50.390;30.778;2022-09-09T01:29:21;100655.59;;;7.69;63.65
46448;BME280;32145;50.390;30.778;2022-09-09T01:32:40;100659.94;;;7.70;63.79
46448;BME280;32145;50.390;30.778;2022-09-09T01:35:32;100650.59;;;7.66;63.98
46448;BME280;32145;50.390;30.778;2022-09-09T01:38:17;100651.38;;;7.59;63.44
46448;BME280;32145;50.390;30.778;2022-09-09T01:41:02;100644.28;;;7.58;63.76
46448;BME280;32145;50.390;30.778;2022-09-09T01:43:48;100648.41;;;7.54;63.77
46448;BME280;32145;50.390;30.778;2022-09-09T01:46:32;100645.09;;;7.52;64.04
46448;BME280;32145;50.390;30.778;2022-09-09T01:49:16;100646.31;;;7.50;63.44
46448;BME280;32145;50.390;30.778;2022-09-09T01:52:01;100647.50;;;7.47;63.77
46448;BME280;32145;50.390;30.778;2022-09-09T01:54:45;100644.38;;;7.43;64.06
46448;BME280;32145;50.390;30.778;2022-09-09T01:57:33;100644.56;;;7.42;64.44
46448;BME280;32145;50.390;30.778;2022-09-09T02:00:22;100641.25;;;7.40;63.97
46448;BME280;32145;50.390;30.778;2022-09-09T02:03:13;100636.84;;;7.39;64.89
46448;BME280;32145;50.390;30.778;2022-09-09T02:06:08;100632.94;;;7.41;64.35
46448;BME280;32145;50.390;30.778;2022-09-09T02:08:57;100632.50;;;7.38;64.29
46448;BME280;32145;50.390;30.778;2022-09-09T02:11:44;100636.03;;;7.38;64.75
46448;BME280;32145;50.390;30.778;2022-09-09T02:14:35;100639.56;;;7.39;64.25
46448;BME280;32145;50.390;30.778;2022-09-09T02:17:25;100637.88;;;7.38;64.74
46448;BME280;32145;50.390;30.778;2022-09-09T02:20:13;100641.16;;;7.33;64.61
46448;BME280;32145;50.390;30.778;2022-09-09T02:22:58;100641.56;;;7.30;64.25
46448;BME280;32145;50.390;30.778;2022-09-09T02:25:43;100648.63;;;7.31;64.66
46448;BME280;32145;50.390;30.778;2022-09-09T02:28:30;100653.16;;;7.30;64.81
46448;BME280;32145;50.390;30.778;2022-09-09T02:31:18;100644.25;;;7.30;65.20
46448;BME280;32145;50.390;30.778;2022-09-09T02:34:05;100647.16;;;7.28;64.42
46448;BME280;32145;50.390;30.778;2022-09-09T02:36:52;100646.31;;;7.28;64.27
46448;BME280;32145;50.390;30.778;2022-09-09T02:39:37;100645.88;;;7.24;64.15
46448;BME280;32145;50.390;30.778;2022-09-09T02:42:21;100645.22;;;7.22;64.80
46448;BME280;32145;50.390;30.778;2022-09-09T02:45:07;100641.03;;;7.19;64.96
46448;BME280;32145;50.390;30.778;2022-09-09T02:47:55;100646.81;;;7.16;65.07
46448;BME280;32145;50.390;30.778;2022-09-09T02:50:50;100640.13;;;7.12;65.17
46448;BME280;32145;50.390;30.778;2022-09-09T02:53:44;100646.09;;;7.07;65.28
46448;BME280;32145;50.390;30.778;2022-09-09T02:56:32;100635.44;;;6.99;65.01
46448;BME280;32145;50.390;30.778;2022-09-09T02:59:19;100640.75;;;6.92;65.07
46448;BME280;32145;50.390;30.778;2022-09-09T03:02:04;100642.34;;;6.87;65.67
46448;BME280;32145;50.390;30.778;2022-09-09T03:04:48;100632.34;;;6.80;65.98
46448;BME280;32145;50.390;30.778;2022-09-09T03:07:33;100634.56;;;6.77;66.09
46448;BME280;32145;50.390;30.778;2022-09-09T03:10:17;100643.88;;;6.74;66.04
46448;BME280;32145;50.390;30.778;2022-09-09T03:13:01;100635.97;;;6.73;66.26
46448;BME280;32145;50.390;30.778;2022-09-09T03:15:45;100643.25;;;6.72;65.80
46448;BME280;32145;50.390;30.778;2022-09-09T03:18:31;100639.50;;;6.73;66.49
46448;BME280;32145;50.390;30.778;2022-09-09T03:21:15;100653.63;;;6.75;66.56
46448;BME280;32145;50.390;30.778;2022-09-09T03:24:01;100650.09;;;6.75;66.21
46448;BME280;32145;50.390;30.778;2022-09-09T03:26:45;100646.38;;;6.76;66.20
46448;BME280;32145;50.390;30.778;2022-09-09T03:29:29;100656.97;;;6.77;66.25
46448;BME280;32145;50.390;30.778;2022-09-09T03:32:13;100659.47;;;6.79;66.26
46448;BME280;32145;50.390;30.778;2022-09-09T03:34:57;100661.31;;;6.78;65.71
46448;BME280;32145;50.390;30.778;2022-09-09T03:37:41;100662.00;;;6.80;66.36
46448;BME280;32145;50.390;30.778;2022-09-09T03:40:26;100663.00;;;6.79;66.15
46448;BME280;32145;50.390;30.778;2022-09-09T03:43:10;100663.00;;;6.79;66.56
46448;BME280;32145;50.390;30.778;2022-09-09T03:45:54;100662.63;;;6.82;65.74
46448;BME280;32145;50.390;30.778;2022-09-09T03:48:39;100672.66;;;6.89;66.30
46448;BME280;32145;50.390;30.778;2022-09-09T03:51:23;100673.94;;;6.93;66.25
46448;BME280;32145;50.390;30.778;2022-09-09T03:54:07;100675.25;;;6.97;66.17
46448;BME280;32145;50.390;30.778;2022-09-09T03:56:53;100671.13;;;7.01;65.30
46448;BME280;32145;50.390;30.778;2022-09-09T03:59:37;100679.47;;;7.06;65.34
46448;BME280;32145;50.390;30.778;2022-09-09T04:02:21;100674.56;;;7.10;65.67
46448;BME280;32145;50.390;30.778;2022-09-09T04:05:06;100675.75;;;7.07;64.96
46448;BME280;32145;50.390;30.778;2022-09-09T04:07:53;100662.06;;;7.09;65.57
46448;BME280;32145;50.390;30.778;2022-09-09T04:10:37;100655.88;;;7.08;65.30
46448;BME280;32145;50.390;30.778;2022-09-09T04:13:22;100653.81;;;7.11;65.73
46448;BME280;32145;50.390;30.778;2022-09-09T04:16:09;100654.66;;;7.11;65.14
46448;BME280;32145;50.390;30.778;2022-09-09T04:18:53;100654.28;;;7.14;65.58
46448;BME280;32145;50.390;30.778;2022-09-09T04:21:37;100662.81;;;7.18;65.20
46448;BME280;32145;50.390;30.778;2022-09-09T04:24:21;100676.94;;;7.20;64.83
46448;BME280;32145;50.390;30.778;2022-09-09T04:27:05;100672.56;;;7.19;65.05
46448;BME280;32145;50.390;30.778;2022-09-09T04:29:51;100694.13;;;7.19;64.93
46448;BME280;32145;50.390;30.778;2022-09-09T04:32:34;100688.72;;;7.19;65.32
46448;BME280;32145;50.390;30.778;2022-09-09T04:35:19;100698.53;;;7.20;64.98
46448;BME280;32145;50.390;30.778;2022-09-09T04:38:03;100693.31;;;7.18;65.32
46448;BME280;32145;50.390;30.778;2022-09-09T04:40:48;100702.03;;;7.20;64.94
46448;BME280;32145;50.390;30.778;2022-09-09T04:43:33;100710.31;;;7.19;65.31
46448;BME280;32145;50.390;30.778;2022-09-09T04:46:18;100714.03;;;7.18;65.56
46448;BME280;32145;50.390;30.778;2022-09-09T04:49:02;100721.81;;;7.28;65.70
46448;BME280;32145;50.390;30.778;2022-09-09T04:51:48;100716.66;;;7.48;65.14
46448;BME280;32145;50.390;30.778;2022-09-09T04:54:32;100718.84;;;7.59;65.27
46448;BME280;32145;50.390;30.778;2022-09-09T04:57:16;100724.09;;;7.68;65.02
46448;BME280;32145;50.390;30.778;2022-09-09T05:00:00;100715.72;;;7.84;64.40
46448;BME280;32145;50.390;30.778;2022-09-09T05:02:46;100723.16;;;8.04;64.13
46448;BME280;32145;50.390;30.778;2022-09-09T05:05:31;100710.78;;;8.17;64.20
46448;BME280;32145;50.390;30.778;2022-09-09T05:08:15;100726.84;;;8.25;63.50
46448;BME280;32145;50.390;30.778;2022-09-09T05:11:00;100736.72;;;8.40;63.34
46448;BME280;32145;50.390;30.778;2022-09-09T05:13:44;100723.53;;;8.58;62.42
46448;BME280;32145;50.390;30.778;2022-09-09T05:16:31;100721.13;;;8.77;62.44
46448;BME280;32145;50.390;30.778;2022-09-09T05:19:16;100719.91;;;8.86;62.13
46448;BME280;32145;50.390;30.778;2022-09-09T05:22:01;100717.88;;;8.95;61.89
46448;BME280;32145;50.390;30.778;2022-09-09T05:24:45;100708.19;;;9.14;61.27
46448;BME280;32145;50.390;30.778;2022-09-09T05:27:29;100705.09;;;9.31;60.65
46448;BME280;32145;50.390;30.778;2022-09-09T05:30:13;100698.06;;;9.50;60.29
46448;BME280;32145;50.390;30.778;2022-09-09T05:32:57;100691.41;;;9.66;59.53
46448;BME280;32145;50.390;30.778;2022-09-09T05:35:42;100689.75;;;9.79;59.81
46448;BME280;32145;50.390;30.778;2022-09-09T05:38:26;100688.50;;;9.88;59.44
46448;BME280;32145;50.390;30.778;2022-09-09T05:41:10;100688.91;;;9.99;59.05
46448;BME280;32145;50.390;30.778;2022-09-09T05:43:55;100694.31;;;10.05;59.01
46448;BME280;32145;50.390;30.778;2022-09-09T05:46:39;100695.16;;;10.06;58.63
46448;BME280;32145;50.390;30.778;2022-09-09T05:49:23;100693.47;;;10.05;59.09
46448;BME280;32145;50.390;30.778;2022-09-09T05:52:08;100699.13;;;10.10;58.87
46448;BME280;32145;50.390;30.778;2022-09-09T05:54:53;100699.94;;;10.24;58.75
46448;BME280;32145;50.390;30.778;2022-09-09T05:57:37;100712.59;;;10.37;58.21
46448;BME280;32145;50.390;30.778;2022-09-09T06:00:24;100705.94;;;10.53;58.20
46448;BME280;32145;50.390;30.778;2022-09-09T06:03:10;100706.94;;;10.66;57.96
46448;BME280;32145;50.390;30.778;2022-09-09T06:05:58;100708.94;;;10.91;57.89
46448;BME280;32145;50.390;30.778;2022-09-09T06:08:44;100711.97;;;11.08;56.54
46448;BME280;32145;50.390;30.778;2022-09-09T06:11:30;100716.47;;;11.28;56.92
46448;BME280;32145;50.390;30.778;2022-09-09T06:14:14;100723.50;;;11.42;56.37
46448;BME280;32145;50.390;30.778;2022-09-09T06:17:01;100728.03;;;11.55;56.09
46448;BME280;32145;50.390;30.778;2022-09-09T06:19:45;100732.97;;;11.65;55.83
46448;BME280;32145;50.390;30.778;2022-09-09T06:22:29;100720.78;;;11.75;55.48
46448;BME280;32145;50.390;30.778;2022-09-09T06:25:14;100706.84;;;11.90;55.65
46448;BME280;32145;50.390;30.778;2022-09-09T06:27:59;100721.44;;;11.95;55.06
46448;BME280;32145;50.390;30.778;2022-09-09T06:30:43;100719.56;;;11.96;54.81
46448;BME280;32145;50.390;30.778;2022-09-09T06:33:30;100730.16;;;12.04;54.80
46448;BME280;32145;50.390;30.778;2022-09-09T06:36:16;100733.75;;;12.23;54.58
46448;BME280;32145;50.390;30.778;2022-09-09T06:39:00;100730.34;;;12.54;54.44
46448;BME280;32145;50.390;30.778;2022-09-09T06:41:46;100739.50;;;12.78;53.35
46448;BME280;32145;50.390;30.778;2022-09-09T06:44:30;100732.16;;;12.97;52.99
46448;BME280;32145;50.390;30.778;2022-09-09T06:47:14;100734.59;;;13.18;52.61
46448;BME280;32145;50.390;30.778;2022-09-09T06:49:58;100737.50;;;13.35;51.91
46448;BME280;32145;50.390;30.778;2022-09-09T06:52:45;100729.41;;;13.47;50.97
46448;BME280;32145;50.390;30.778;2022-09-09T06:55:30;100733.94;;;13.53;50.74
46448;BME280;32145;50.390;30.778;2022-09-09T06:58:15;100725.91;;;13.58;50.18
46448;BME280;32145;50.390;30.778;2022-09-09T07:01:03;100722.38;;;13.70;50.22
46448;BME280;32145;50.390;30.778;2022-09-09T07:03:49;100728.91;;;13.81;50.05
46448;BME280;32145;50.390;30.778;2022-09-09T07:06:35;100738.50;;;13.95;49.48
46448;BME280;32145;50.390;30.778;2022-09-09T07:09:20;100734.16;;;14.06;49.03
46448;BME280;32145;50.390;30.778;2022-09-09T07:12:04;100736.78;;;14.13;48.93
46448;BME280;32145;50.390;30.778;2022-09-09T07:14:52;100735.22;;;14.17;48.56
46448;BME280;32145;50.390;30.778;2022-09-09T07:17:36;100745.91;;;14.30;48.72
46448;BME280;32145;50.390;30.778;2022-09-09T07:20:20;100746.84;;;14.48;48.14
46448;BME280;32145;50.390;30.778;2022-09-09T07:23:04;100744.94;;;14.61;47.85
46448;BME280;32145;50.390;30.778;2022-09-09T07:25:48;100739.00;;;14.64;47.45
46448;BME280;32145;50.390;30.778;2022-09-09T07:28:33;100744.44;;;14.76;47.07
46448;BME280;32145;50.390;30.778;2022-09-09T07:31:24;100745.16;;;14.83;46.40
46448;BME280;32145;50.390;30.778;2022-09-09T07:34:08;100741.88;;;14.81;46.54
46448;BME280;32145;50.390;30.778;2022-09-09T07:36:52;100743.38;;;14.89;45.78
46448;BME280;32145;50.390;30.778;2022-09-09T07:39:36;100744.88;;;14.97;45.57
46448;BME280;32145;50.390;30.778;2022-09-09T07:42:20;100750.31;;;15.08;45.71
46448;BME280;32145;50.390;30.778;2022-09-09T07:45:06;100743.63;;;15.16;45.32
46448;BME280;32145;50.390;30.778;2022-09-09T07:47:52;100738.88;;;15.24;45.08
46448;BME280;32145;50.390;30.778;2022-09-09T07:50:36;100736.91;;;15.36;44.28
46448;BME280;32145;50.390;30.778;2022-09-09T07:53:20;100739.41;;;15.38;43.99
46448;BME280;32145;50.390;30.778;2022-09-09T07:56:05;100743.22;;;15.37;43.76
46448;BME280;32145;50.390;30.778;2022-09-09T07:58:51;100728.06;;;15.46;43.80
46448;BME280;32145;50.390;30.778;2022-09-09T08:01:37;100732.47;;;15.47;42.75
46448;BME280;32145;50.390;30.778;2022-09-09T08:04:24;100733.56;;;15.17;43.00
46448;BME280;32145;50.390;30.778;2022-09-09T08:07:10;100732.56;;;14.94;43.19
46448;BME280;32145;50.390;30.778;2022-09-09T08:09:54;100729.19;;;15.04;43.33
46448;BME280;32145;50.390;30.778;2022-09-09T08:12:38;100733.41;;;15.24;42.82
46448;BME280;32145;50.390;30.778;2022-09-09T08:15:25;100739.50;;;15.43;42.69
46448;BME280;32145;50.390;30.778;2022-09-09T08:18:09;100740.28;;;15.55;42.33
46448;BME280;32145;50.390;30.778;2022-09-09T08:20:54;100734.47;;;15.69;42.03
46448;BME280;32145;50.390;30.778;2022-09-09T08:23:40;100727.28;;;15.80;42.05
46448;BME280;32145;50.390;30.778;2022-09-09T08:26:27;100725.88;;;15.94;41.70
46448;BME280;32145;50.390;30.778;2022-09-09T08:29:12;100716.97;;;15.99;41.23
46448;BME280;32145;50.390;30.778;2022-09-09T08:31:58;100709.06;;;16.20;41.29
46448;BME280;32145;50.390;30.778;2022-09-09T08:34:42;100724.06;;;16.34;40.42
46448;BME280;32145;50.390;30.778;2022-09-09T08:37:28;100720.31;;;16.41;40.31
46448;BME280;32145;50.390;30.778;2022-09-09T08:40:21;100724.69;;;16.42;40.43
46448;BME280;32145;50.390;30.778;2022-09-09T08:43:08;100717.56;;;16.41;40.02
46448;BME280;32145;50.390;30.778;2022-09-09T08:45:58;100709.44;;;16.46;39.94
46448;BME280;32145;50.390;30.778;2022-09-09T08:48:51;100719.06;;;16.48;39.77
46448;BME280;32145;50.390;30.778;2022-09-09T08:51:38;100709.06;;;16.59;38.79
46448;BME280;32145;50.390;30.778;2022-09-09T08:54:26;100709.53;;;16.73;38.94
46448;BME280;32145;50.390;30.778;2022-09-09T08:57:20;100720.06;;;16.87;38.10
46448;BME280;32145;50.390;30.778;2022-09-09T09:00:09;100710.22;;;16.86;37.54
46448;BME280;32145;50.390;30.778;2022-09-09T09:03:02;100703.84;;;16.80;37.29
46448;BME280;32145;50.390;30.778;2022-09-09T09:05:57;100705.56;;;16.86;37.16
46448;BME280;32145;50.390;30.778;2022-09-09T09:08:48;100703.97;;;16.91;37.47
46448;BME280;32145;50.390;30.778;2022-09-09T09:11:43;100707.59;;;16.96;37.85
46448;BME280;32145;50.390;30.778;2022-09-09T09:14:30;100708.25;;;17.04;37.88
46448;BME280;32145;50.390;30.778;2022-09-09T09:17:19;100690.53;;;17.11;37.66
46448;BME280;32145;50.390;30.778;2022-09-09T09:20:11;100707.59;;;17.19;37.29
46448;BME280;32145;50.390;30.778;2022-09-09T09:22:59;100691.16;;;17.19;36.95
46448;BME280;32145;50.390;30.778;2022-09-09T09:25:46;100679.63;;;17.17;37.02
46448;BME280;32145;50.390;30.778;2022-09-09T09:28:33;100693.91;;;17.19;37.00
46448;BME280;32145;50.390;30.778;2022-09-09T09:31:18;100680.16;;;17.13;36.78
46448;BME280;32145;50.390;30.778;2022-09-09T09:34:03;100676.84;;;17.11;36.99
46448;BME280;32145;50.390;30.778;2022-09-09T09:36:53;100688.94;;;17.16;36.19
46448;BME280;32145;50.390;30.778;2022-09-09T09:39:37;100690.41;;;17.23;36.67
46448;BME280;32145;50.390;30.778;2022-09-09T09:42:22;100703.88;;;17.30;36.47
46448;BME280;32145;50.390;30.778;2022-09-09T09:45:17;100699.28;;;17.36;36.08
46448;BME280;32145;50.390;30.778;2022-09-09T09:48:05;100699.91;;;17.43;36.09
46448;BME280;32145;50.390;30.778;2022-09-09T09:50:52;100708.47;;;17.52;35.88
46448;BME280;32145;50.390;30.778;2022-09-09T09:53:37;100695.88;;;17.56;35.92
46448;BME280;32145;50.390;30.778;2022-09-09T09:56:28;100694.63;;;17.69;35.82
46448;BME280;32145;50.390;30.778;2022-09-09T09:59:23;100695.28;;;17.82;35.55
46448;BME280;32145;50.390;30.778;2022-09-09T10:02:20;100685.16;;;17.82;34.24
46448;BME280;32145;50.390;30.778;2022-09-09T10:05:08;100691.75;;;17.86;34.19
46448;BME280;32145;50.390;30.778;2022-09-09T10:08:03;100685.19;;;17.87;34.43
46448;BME280;32145;50.390;30.778;2022-09-09T10:10:58;100686.13;;;18.03;34.62
46448;BME280;32145;50.390;30.778;2022-09-09T10:13:52;100689.75;;;18.09;33.95
46448;BME280;32145;50.390;30.778;2022-09-09T10:16:52;100688.41;;;18.12;34.10
46448;BME280;32145;50.390;30.778;2022-09-09T10:19:42;100699.75;;;18.26;34.19
46448;BME280;32145;50.390;30.778;2022-09-09T10:22:32;100705.91;;;18.49;33.60
46448;BME280;32145;50.390;30.778;2022-09-09T10:25:28;100687.84;;;18.63;33.41
46448;BME280;32145;50.390;30.778;2022-09-09T10:28:27;100697.78;;;18.80;33.33
46448;BME280;32145;50.390;30.778;2022-09-09T10:31:19;100697.00;;;18.90;32.70
46448;BME280;32145;50.390;30.778;2022-09-09T10:34:15;100688.53;;;19.02;32.58
46448;BME280;32145;50.390;30.778;2022-09-09T10:37:11;100678.06;;;18.99;32.24
46448;BME280;32145;50.390;30.778;2022-09-09T10:40:08;100679.72;;;18.89;31.81
46448;BME280;32145;50.390;30.778;2022-09-09T10:43:07;100679.72;;;18.89;32.35
46448;BME280;32145;50.390;30.778;2022-09-09T10:46:00;100678.91;;;19.04;32.34
46448;BME280;32145;50.390;30.778;2022-09-09T10:49:00;100677.06;;;19.26;32.43
46448;BME280;32145;50.390;30.778;2022-09-09T10:51:54;100671.84;;;19.29;32.13
46448;BME280;32145;50.390;30.778;2022-09-09T10:54:56;100665.81;;;19.22;31.78
46448;BME280;32145;50.390;30.778;2022-09-09T10:57:45;100674.59;;;19.19;31.86
46448;BME280;32145;50.390;30.778;2022-09-09T11:00:37;100668.25;;;19.13;31.50
46448;BME280;32145;50.390;30.778;2022-09-09T11:03:26;100662.66;;;18.87;32.00
46448;BME280;32145;50.390;30.778;2022-09-09T11:06:14;100661.78;;;18.71;32.37
46448;BME280;32145;50.390;30.778;2022-09-09T11:09:00;100675.81;;;18.75;32.35
46448;BME280;32145;50.390;30.778;2022-09-09T11:11:51;100675.53;;;18.81;32.25
46448;BME280;32145;50.390;30.778;2022-09-09T11:14:39;100672.00;;;18.81;32.57
46448;BME280;32145;50.390;30.778;2022-09-09T11:17:31;100670.88;;;18.87;32.67
46448;BME280;32145;50.390;30.778;2022-09-09T11:20:17;100678.63;;;19.01;32.34
46448;BME280;32145;50.390;30.778;2022-09-09T11:23:03;100664.31;;;18.93;32.48
46448;BME280;32145;50.390;30.778;2022-09-09T11:25:52;100672.56;;;18.99;32.29
46448;BME280;32145;50.390;30.778;2022-09-09T11:28:54;100686.91;;;19.06;32.08
46448;BME280;32145;50.390;30.778;2022-09-09T11:31:56;100674.81;;;19.07;32.35
46448;BME280;32145;50.390;30.778;2022-09-09T11:34:50;100666.59;;;19.12;32.12
46448;BME280;32145;50.390;30.778;2022-09-09T11:37:50;100667.91;;;18.99;32.12
46448;BME280;32145;50.390;30.778;2022-09-09T11:40:38;100672.53;;;18.83;32.54
46448;BME280;32145;50.390;30.778;2022-09-09T11:43:27;100667.59;;;18.85;32.61
46448;BME280;32145;50.390;30.778;2022-09-09T11:46:15;100669.50;;;18.79;32.49
46448;BME280;32145;50.390;30.778;2022-09-09T11:49:02;100680.19;;;18.76;32.52
46448;BME280;32145;50.390;30.778;2022-09-09T11:51:49;100676.13;;;18.84;32.71
46448;BME280;32145;50.390;30.778;2022-09-09T11:54:46;100662.69;;;18.92;32.65
46448;BME280;32145;50.390;30.778;2022-09-09T11:57:32;100664.59;;;18.87;32.20
46448;BME280;32145;50.390;30.778;2022-09-09T12:00:33;100669.84;;;19.04;32.61
46448;BME280;32145;50.390;30.778;2022-09-09T12:03:39;100663.53;;;19.03;32.79
46448;BME280;32145;50.390;30.778;2022-09-09T12:06:29;100660.16;;;18.80;32.23
46448;BME280;32145;50.390;30.778;2022-09-09T12:09:21;100653.56;;;18.76;32.20
46448;BME280;32145;50.390;30.778;2022-09-09T12:12:17;100651.09;;;18.75;32.52
46448;BME280;32145;50.390;30.778;2022-09-09T12:15:21;100643.94;;;18.79;32.56
46448;BME280;32145;50.390;30.778;2022-09-09T12:18:07;100645.06;;;18.83;32.59
46448;BME280;32145;50.390;30.778;2022-09-09T12:21:06;100652.75;;;18.81;32.36
46448;BME280;32145;50.390;30.778;2022-09-09T12:23:55;100653.84;;;18.80;32.40
46448;BME280;32145;50.390;30.778;2022-09-09T12:26:43;100647.78;;;18.73;32.61
46448;BME280;32145;50.390;30.778;2022-09-09T12:29:33;100651.88;;;18.70;33.00
46448;BME280;32145;50.390;30.778;2022-09-09T12:32:24;100648.28;;;18.59;32.87
46448;BME280;32145;50.390;30.778;2022-09-09T12:35:11;100640.03;;;18.49;33.14
46448;BME280;32145;50.390;30.778;2022-09-09T12:38:02;100646.59;;;18.48;33.19
46448;BME280;32145;50.390;30.778;2022-09-09T12:40:54;100650.44;;;18.47;33.18
46448;BME280;32145;50.390;30.778;2022-09-09T12:43:39;100651.50;;;18.40;33.18
46448;BME280;32145;50.390;30.778;2022-09-09T12:46:34;100653.69;;;18.38;33.38
46448;BME280;32145;50.390;30.778;2022-09-09T12:49:27;100651.50;;;18.40;33.35
46448;BME280;32145;50.390;30.778;2022-09-09T12:52:15;100649.03;;;18.39;33.63
46448;BME280;32145;50.390;30.778;2022-09-09T12:55:07;100644.66;;;18.43;33.50
46448;BME280;32145;50.390;30.778;2022-09-09T12:58:01;100646.84;;;18.41;33.59
46448;BME280;32145;50.390;30.778;2022-09-09T13:00:49;100654.22;;;18.35;32.89
46448;BME280;32145;50.390;30.778;2022-09-09T13:03:42;100644.00;;;18.25;33.08
46448;BME280;32145;50.390;30.778;2022-09-09T13:06:28;100652.50;;;18.24;33.39
46448;BME280;32145;50.390;30.778;2022-09-09T13:09:12;100643.72;;;18.22;33.71
46448;BME280;32145;50.390;30.778;2022-09-09T13:11:58;100651.91;;;18.16;33.13
46448;BME280;32145;50.390;30.778;2022-09-09T13:14:44;100645.88;;;18.09;33.38
46448;BME280;32145;50.390;30.778;2022-09-09T13:17:31;100641.91;;;18.00;34.08
46448;BME280;32145;50.390;30.778;2022-09-09T13:20:17;100639.16;;;17.95;33.90
46448;BME280;32145;50.390;30.778;2022-09-09T13:23:01;100645.69;;;17.88;34.02
46448;BME280;32145;50.390;30.778;2022-09-09T13:25:53;100643.50;;;17.85;33.82
46448;BME280;32145;50.390;30.778;2022-09-09T13:28:39;100643.44;;;17.80;33.75
46448;BME280;32145;50.390;30.778;2022-09-09T13:31:27;100642.06;;;17.77;33.90
46448;BME280;32145;50.390;30.778;2022-09-09T13:34:12;100643.97;;;17.77;33.98
46448;BME280;32145;50.390;30.778;2022-09-09T13:36:59;100648.63;;;17.76;33.94
46448;BME280;32145;50.390;30.778;2022-09-09T13:39:51;100643.97;;;17.77;33.82
46448;BME280;32145;50.390;30.778;2022-09-09T13:42:39;100641.19;;;17.72;34.06
46448;BME280;32145;50.390;30.778;2022-09-09T13:45:28;100646.91;;;17.65;34.10
46448;BME280;32145;50.390;30.778;2022-09-09T13:48:18;100645.78;;;17.61;34.05
46448;BME280;32145;50.390;30.778;2022-09-09T13:51:03;100656.72;;;17.56;33.75
46448;BME280;32145;50.390;30.778;2022-09-09T13:53:48;100638.00;;;17.47;33.97
46448;BME280;32145;50.390;30.778;2022-09-09T13:56:32;100647.00;;;17.43;33.75
46448;BME280;32145;50.390;30.778;2022-09-09T13:59:19;100650.25;;;17.39;33.69
46448;BME280;32145;50.390;30.778;2022-09-09T14:02:05;100650.75;;;17.36;33.63
46448;BME280;32145;50.390;30.778;2022-09-09T14:04:49;100649.63;;;17.32;34.13
46448;BME280;32145;50.390;30.778;2022-09-09T14:07:33;100653.97;;;17.28;34.11
46448;BME280;32145;50.390;30.778;2022-09-09T14:10:17;100650.69;;;17.26;34.03
46448;BME280;32145;50.390;30.778;2022-09-09T14:13:01;100659.97;;;17.25;33.99
46448;BME280;32145;50.390;30.778;2022-09-09T14:15:45;100663.81;;;17.24;34.18
46448;BME280;32145;50.390;30.778;2022-09-09T14:18:30;100660.53;;;17.22;34.03
46448;BME280;32145;50.390;30.778;2022-09-09T14:21:14;100651.72;;;17.20;34.38
46448;BME280;32145;50.390;30.778;2022-09-09T14:23:59;100646.19;;;17.15;34.33
46448;BME280;32145;50.390;30.778;2022-09-09T14:26:43;100639.00;;;17.08;34.70
46448;BME280;32145;50.390;30.778;2022-09-09T14:29:27;100637.28;;;17.02;34.51
46448;BME280;32145;50.390;30.778;2022-09-09T14:32:11;100626.25;;;16.97;35.04